Time;durP1;ratioP1;P1;durP2;ratioP2;P2;SDS_P1;SDS_P2;PMS_P1;PMS_P2;Temp;Humidity;BMP_temperature;BMP_pressure;BME280_temperature;BME280_humidity;BME280_pressure;Samples;Min_cycle;Max_cycle;Signal;HPM_P1;HPM_P2
2021/03/03 00:01:41;;;;;;;11.70;9.50;;;;;;;-0.97;86.84;102587.41;5056255;28;20670;-71
2021/03/03 00:04:06;;;;;;;14.70;8.63;;;;;;;-0.90;85.73;102577.94;5038884;28;20686;-70
2021/03/03 00:06:31;;;;;;;14.43;9.30;;;;;;;-0.86;85.49;102578.91;5057255;28;20191;-71
2021/03/03 00:08:58;;;;;;;14.60;9.00;;;;;;;-0.75;85.31;102574.75;5057307;28;20171;-71
2021/03/03 00:11:23;;;;;;;15.40;9.57;;;;;;;-0.84;84.87;102567.59;5057454;28;20164;-71
2021/03/03 00:13:49;;;;;;;11.57;8.67;;;;;;;-0.81;84.62;102562.41;5058270;28;20695;-70
2021/03/03 00:16:14;;;;;;;11.33;8.97;;;;;;;-0.78;84.31;102564.22;5057463;28;20539;-70
2021/03/03 00:18:39;;;;;;;18.43;9.80;;;;;;;-0.88;84.98;102560.53;5056408;28;20171;-70
2021/03/03 00:21:05;;;;;;;10.33;8.23;;;;;;;-0.83;84.64;102568.47;5057671;28;20551;-71
2021/03/03 00:23:30;;;;;;;14.50;8.47;;;;;;;-0.80;83.72;102563.28;5039848;28;20180;-71
2021/03/03 00:25:55;;;;;;;18.33;8.03;;;;;;;-0.96;84.21;102567.34;5057485;28;20214;-71
2021/03/03 00:28:20;;;;;;;16.37;8.17;;;;;;;-0.93;84.29;102574.38;5057797;28;20582;-71
2021/03/03 00:30:46;;;;;;;18.63;9.37;;;;;;;-1.03;84.35;102561.09;5057645;28;20175;-71
2021/03/03 00:33:11;;;;;;;17.20;9.33;;;;;;;-1.00;84.86;102562.88;5057063;28;20195;-71
2021/03/03 00:35:36;;;;;;;34.50;10.23;;;;;;;-1.04;85.18;102563.66;5057122;28;20175;-71
2021/03/03 00:38:02;;;;;;;43.00;11.23;;;;;;;-0.98;84.54;102564.69;5058563;28;20586;-70
2021/03/03 00:40:27;;;;;;;19.30;9.03;;;;;;;-1.04;84.49;102559.31;5057473;28;20202;-71
2021/03/03 00:42:52;;;;;;;18.47;7.67;;;;;;;-1.16;83.89;102559.03;5058210;28;20536;-71
2021/03/03 00:45:17;;;;;;;15.57;9.53;;;;;;;-1.22;85.00;102561.50;5056953;28;20175;-70
2021/03/03 00:47:43;;;;;;;51.60;11.50;;;;;;;-1.28;85.01;102557.00;5058226;28;20207;-70
2021/03/03 00:50:09;;;;;;;54.23;10.73;;;;;;;-1.34;84.47;102553.38;5056896;28;20181;-69
2021/03/03 00:52:34;;;;;;;140.67;15.63;;;;;;;-1.56;85.21;102551.97;5056604;28;20552;-71
2021/03/03 00:54:59;;;;;;;13.83;8.40;;;;;;;-1.47;86.06;102556.56;5038756;28;20289;-71
2021/03/03 00:57:25;;;;;;;27.87;9.30;;;;;;;-1.43;85.52;102554.06;5038606;28;20298;-70
2021/03/03 00:59:50;;;;;;;11.37;7.73;;;;;;;-1.46;84.98;102550.47;5055324;28;20175;-70
2021/03/03 01:02:17;;;;;;;53.33;10.90;;;;;;;-1.58;85.76;102548.44;5056545;28;20167;-70
2021/03/03 01:04:42;;;;;;;15.83;9.03;;;;;;;-1.62;86.36;102543.97;5038056;28;20179;-71
2021/03/03 01:07:07;;;;;;;173.63;15.83;;;;;;;-1.73;86.02;102532.38;5037964;28;20208;-71
2021/03/03 01:09:33;;;;;;;27.03;9.67;;;;;;;-1.70;86.29;102533.31;5054861;28;20658;-71
2021/03/03 01:11:58;;;;;;;81.53;13.93;;;;;;;-1.72;85.39;102529.78;5054360;28;20172;-71
2021/03/03 01:14:23;;;;;;;17.73;9.57;;;;;;;-1.75;86.43;102524.47;5054581;28;20250;-71
2021/03/03 01:16:51;;;;;;;103.40;12.03;;;;;;;-1.79;85.82;102530.47;5055499;28;20560;-71
2021/03/03 01:19:17;;;;;;;17.00;9.83;;;;;;;-1.77;86.88;102526.16;5054227;28;20170;-70
2021/03/03 01:21:42;;;;;;;27.07;10.37;;;;;;;-1.65;86.28;102518.59;5055517;28;20603;-70
2021/03/03 01:24:08;;;;;;;13.10;9.33;;;;;;;-1.62;86.48;102517.78;5055379;28;20213;-71
2021/03/03 01:26:33;;;;;;;94.87;14.70;;;;;;;-1.70;85.64;102512.38;5055151;28;20203;-70
2021/03/03 01:28:58;;;;;;;24.93;9.73;;;;;;;-1.64;86.04;102507.28;5055578;28;20183;-70
2021/03/03 01:31:24;;;;;;;11.77;9.03;;;;;;;-1.68;85.72;102500.19;5056272;28;20184;-70
2021/03/03 01:33:49;;;;;;;16.47;9.77;;;;;;;-1.67;85.24;102501.09;5054682;28;20603;-71
2021/03/03 01:36:14;;;;;;;87.97;11.83;;;;;;;-1.80;85.55;102499.03;5055717;28;20172;-71
2021/03/03 01:38:40;;;;;;;77.60;11.97;;;;;;;-1.84;85.81;102487.63;5057370;28;20176;-70
2021/03/03 01:41:05;;;;;;;92.73;14.00;;;;;;;-1.89;86.10;102494.44;5055300;28;20539;-71
2021/03/03 01:43:31;;;;;;;83.77;10.63;;;;;;;-1.96;86.06;102492.53;5056034;28;20172;-71
2021/03/03 01:45:57;;;;;;;121.50;13.60;;;;;;;-1.94;86.32;102488.22;5039572;28;20175;-71
2021/03/03 01:48:22;;;;;;;47.93;11.63;;;;;;;-2.02;87.53;102482.78;5056050;28;20226;-71
2021/03/03 01:50:47;;;;;;;23.73;10.37;;;;;;;-2.06;88.09;102478.34;5056065;28;20176;-71
2021/03/03 01:53:13;;;;;;;14.93;9.83;;;;;;;-1.94;87.40;102469.91;5054992;28;20560;-71
2021/03/03 01:55:38;;;;;;;29.00;13.47;;;;;;;-1.81;86.98;102458.88;5054063;28;20182;-71
2021/03/03 01:58:04;;;;;;;27.13;9.87;;;;;;;-1.72;86.47;102461.72;5055277;28;20196;-71
2021/03/03 02:00:30;;;;;;;31.07;10.07;;;;;;;-1.69;86.12;102461.78;5053997;28;20583;-70
2021/03/03 02:02:55;;;;;;;82.73;11.30;;;;;;;-1.69;84.98;102453.94;5056324;28;20194;-70
2021/03/03 02:05:20;;;;;;;42.53;12.10;;;;;;;-1.82;85.73;102454.50;5060281;28;20182;-71
2021/03/03 02:08:11;;;;;;;37.53;11.80;;;;;;;-1.94;85.93;102451.56;5054972;28;20679;-71
2021/03/03 02:11:00;;;;;;;12.93;9.07;;;;;;;-1.91;86.31;102446.41;5055924;28;20695;-71
2021/03/03 02:13:32;;;;;;;82.40;13.77;;;;;;;-1.94;85.93;102451.56;5037378;28;20226;-71
2021/03/03 02:16:00;;;;;;;53.57;12.40;;;;;;;-2.03;86.79;102446.13;5053907;28;20674;-70
2021/03/03 02:18:26;;;;;;;66.27;11.67;;;;;;;-2.06;86.51;102432.97;5053475;28;20203;-70
2021/03/03 02:21:29;;;;;;;125.23;14.87;;;;;;;-2.17;86.07;102427.50;5053517;28;20179;-71
2021/03/03 02:24:01;;;;;;;11.93;9.27;;;;;;;-2.06;86.37;102422.50;5054581;28;20647;-70
2021/03/03 02:26:34;;;;;;;23.00;10.80;;;;;;;-1.93;86.19;102427.16;5053372;28;20191;-69
2021/03/03 02:29:05;;;;;;;14.83;9.53;;;;;;;-1.84;86.04;102423.91;5053895;28;20166;-70
2021/03/03 02:31:32;;;;;;;15.47;9.77;;;;;;;-1.78;85.53;102424.94;5054197;28;20267;-70
2021/03/03 02:33:58;;;;;;;17.70;10.63;;;;;;;-1.81;85.04;102414.41;5036292;28;20580;-70
2021/03/03 02:36:24;;;;;;;34.50;11.60;;;;;;;-1.85;84.87;102417.78;5052811;28;20194;-70
2021/03/03 02:38:49;;;;;;;24.00;10.30;;;;;;;-1.83;85.05;102404.75;5053966;28;20183;-70
2021/03/03 02:41:15;;;;;;;13.13;9.33;;;;;;;-1.84;84.87;102408.22;5053433;28;20178;-71
2021/03/03 02:43:42;;;;;;;11.03;9.07;;;;;;;-1.85;84.83;102401.22;5053200;28;20174;-70
2021/03/03 02:46:07;;;;;;;10.00;7.93;;;;;;;-1.87;84.78;102406.38;5052917;28;20179;-71
2021/03/03 02:48:33;;;;;;;78.37;12.40;;;;;;;-2.15;84.94;102396.13;5053291;28;20178;-71
2021/03/03 02:50:58;;;;;;;82.03;12.10;;;;;;;-2.15;85.34;102388.28;5036685;28;20182;-70
2021/03/03 02:53:24;;;;;;;11.10;9.20;;;;;;;-2.16;84.95;102389.13;5054187;28;20757;-70
2021/03/03 02:55:49;;;;;;;102.40;15.73;;;;;;;-2.35;85.53;102372.97;5054955;28;20521;-70
2021/03/03 02:58:14;;;;;;;44.07;11.57;;;;;;;-2.28;85.42;102385.34;5054114;28;20195;-69
2021/03/03 03:00:41;;;;;;;31.50;10.87;;;;;;;-2.37;85.70;102379.91;5053208;28;20633;-70
2021/03/03 03:03:29;;;;;;;11.37;9.23;;;;;;;-2.38;85.80;102378.13;5054044;28;20651;-70
2021/03/03 03:06:05;;;;;;;39.93;11.80;;;;;;;-2.44;86.01;102382.34;5053168;28;20409;-70
2021/03/03 03:08:32;;;;;;;20.00;9.37;;;;;;;-2.41;85.62;102380.69;5054281;28;20628;-71
2021/03/03 03:11:04;;;;;;;15.17;9.20;;;;;;;-2.35;85.38;102369.47;5055306;28;20179;-71
2021/03/03 03:13:30;;;;;;;49.27;12.03;;;;;;;-2.39;85.31;102371.13;5059856;28;20205;-71
2021/03/03 03:15:57;;;;;;;15.87;9.90;;;;;;;-2.36;85.66;102365.09;5059215;28;20416;-71
2021/03/03 03:18:26;;;;;;;15.50;9.07;;;;;;;-2.37;85.58;102366.81;5058082;28;20196;-70
2021/03/03 03:20:53;;;;;;;15.03;9.60;;;;;;;-2.35;84.78;102369.47;5058535;28;20175;-70
2021/03/03 03:23:20;;;;;;;15.57;10.03;;;;;;;-2.47;85.85;102363.97;5057445;28;20175;-71
2021/03/03 03:25:46;;;;;;;64.37;13.60;;;;;;;-2.54;85.89;102370.78;5040341;28;20687;-71
2021/03/03 03:28:12;;;;;;;25.73;11.57;;;;;;;-2.57;86.22;102379.44;5059979;28;20209;-70
2021/03/03 03:30:37;;;;;;;17.93;9.90;;;;;;;-2.55;86.35;102376.84;5041583;28;20420;-70
2021/03/03 03:33:04;;;;;;;20.77;12.23;;;;;;;-2.55;85.98;102366.41;5057727;28;20668;-70
2021/03/03 03:35:29;;;;;;;45.03;15.13;;;;;;;-2.62;85.96;102365.31;5058209;28;20647;-70
2021/03/03 03:37:58;;;;;;;12.70;9.73;;;;;;;-2.60;86.29;102371.50;5055853;28;20245;-70
2021/03/03 03:40:23;;;;;;;16.13;10.17;;;;;;;-2.61;85.91;102359.25;5056797;28;20186;-70
2021/03/03 03:42:54;;;;;;;12.73;9.73;;;;;;;-2.69;85.95;102359.91;5056649;28;20183;-70
2021/03/03 03:45:21;;;;;;;24.17;10.47;;;;;;;-2.73;85.76;102368.53;5056775;28;20210;-70
2021/03/03 03:47:46;;;;;;;11.70;9.43;;;;;;;-2.80;85.94;102372.72;5039266;28;20480;-70
2021/03/03 03:50:11;;;;;;;10.47;8.87;;;;;;;-2.80;86.50;102369.22;5057303;28;20417;-71
2021/03/03 03:52:37;;;;;;;24.73;10.93;;;;;;;-2.77;86.11;102374.50;5057253;28;20629;-70
2021/03/03 03:55:03;;;;;;;14.63;11.00;;;;;;;-2.74;86.11;102375.47;5056068;28;20196;-70
2021/03/03 03:57:39;;;;;;;112.00;15.80;;;;;;;-2.79;85.98;102370.97;5056758;28;20242;-70
2021/03/03 04:00:06;;;;;;;52.87;13.00;;;;;;;-2.80;85.98;102372.72;5039394;28;20170;-70
2021/03/03 04:02:31;;;;;;;19.60;11.97;;;;;;;-2.80;86.57;102374.44;5056842;28;20229;-70
2021/03/03 04:04:56;;;;;;;13.33;10.77;;;;;;;-2.70;86.14;102373.81;5057332;28;20421;-69
2021/03/03 04:07:22;;;;;;;51.60;12.70;;;;;;;-2.70;85.22;102369.47;5057037;28;20682;-70
2021/03/03 04:09:47;;;;;;;15.53;10.47;;;;;;;-2.73;85.95;102363.28;5055104;28;20186;-70
2021/03/03 04:12:12;;;;;;;15.40;11.43;;;;;;;-2.67;85.92;102358.22;5056805;28;20552;-71
2021/03/03 04:14:38;;;;;;;16.83;12.07;;;;;;;-2.75;85.10;102351.91;5056889;28;20202;-70
2021/03/03 04:17:03;;;;;;;17.40;12.13;;;;;;;-2.87;86.03;102348.16;5056305;28;20191;-71
2021/03/03 04:19:28;;;;;;;19.40;13.23;;;;;;;-2.90;86.25;102348.06;5056802;28;20186;-70
2021/03/03 04:21:54;;;;;;;16.53;12.93;;;;;;;-2.90;85.69;102345.47;5056347;28;20521;-70
2021/03/03 04:24:19;;;;;;;21.97;14.77;;;;;;;-2.81;86.14;102344.81;5054619;28;20175;-71
2021/03/03 04:26:44;;;;;;;22.47;13.90;;;;;;;-2.77;86.15;102349.28;5056023;28;20198;-71
2021/03/03 04:29:09;;;;;;;23.87;14.03;;;;;;;-2.75;86.47;102344.97;5056301;28;20182;-71
2021/03/03 04:31:35;;;;;;;45.60;17.03;;;;;;;-2.75;87.10;102346.69;5056028;28;20639;-71
2021/03/03 04:34:00;;;;;;;39.57;14.00;;;;;;;-2.74;86.72;102343.22;5055229;28;20257;-71
2021/03/03 04:36:25;;;;;;;37.10;16.23;;;;;;;-2.78;86.65;102342.28;5054830;28;20230;-71
2021/03/03 04:38:51;;;;;;;46.07;16.43;;;;;;;-2.81;87.55;102342.19;5056207;28;20178;-71
2021/03/03 04:41:16;;;;;;;24.87;15.37;;;;;;;-2.72;86.90;102333.69;5054753;28;20521;-70
2021/03/03 04:43:41;;;;;;;23.87;15.40;;;;;;;-2.67;86.83;102338.19;5055975;28;20540;-71
2021/03/03 04:46:06;;;;;;;21.37;14.47;;;;;;;-2.58;86.86;102332.34;5054500;28;20185;-71
2021/03/03 04:48:32;;;;;;;27.17;15.20;;;;;;;-2.58;86.25;102319.25;5055076;28;20206;-71
2021/03/03 04:50:57;;;;;;;18.60;13.30;;;;;;;-2.56;86.51;102331.53;5055739;28;20187;-71
2021/03/03 04:53:23;;;;;;;23.27;14.27;;;;;;;-2.54;86.00;102323.72;5055534;28;20203;-71
2021/03/03 04:55:49;;;;;;;23.33;13.90;;;;;;;-2.51;85.65;102318.56;5054496;28;20666;-70
2021/03/03 04:58:14;;;;;;;21.00;14.33;;;;;;;-2.49;85.90;102314.25;5054554;28;20651;-71
2021/03/03 05:00:39;;;;;;;25.03;14.53;;;;;;;-2.50;85.33;102314.22;5056352;28;20525;-71
2021/03/03 05:03:04;;;;;;;34.10;14.20;;;;;;;-2.59;85.21;102315.75;5054446;28;20231;-71
2021/03/03 05:05:30;;;;;;;18.03;12.63;;;;;;;-2.64;85.48;102313.84;5054376;28;20202;-71
2021/03/03 05:07:55;;;;;;;19.30;13.27;;;;;;;-2.66;85.86;102308.59;5055892;28;20289;-70
2021/03/03 05:10:21;;;;;;;17.53;13.27;;;;;;;-2.67;85.68;102306.81;5055927;28;20189;-72
2021/03/03 05:12:46;;;;;;;18.90;12.77;;;;;;;-2.66;85.42;102302.47;5055808;28;20240;-70
2021/03/03 05:15:12;;;;;;;22.53;14.03;;;;;;;-2.73;85.48;102301.44;5055024;28;20233;-69
2021/03/03 05:17:37;;;;;;;19.87;13.47;;;;;;;-2.75;85.53;102286.59;5054950;28;20509;-70
2021/03/03 05:20:04;;;;;;;16.90;12.60;;;;;;;-2.77;85.76;102283.94;5055436;28;20198;-70
2021/03/03 05:22:29;;;;;;;18.80;14.17;;;;;;;-2.81;85.58;102276.88;5056925;28;20722;-71
2021/03/03 05:24:54;;;;;;;18.60;13.90;;;;;;;-2.84;85.83;102275.06;5056612;28;20417;-71
2021/03/03 05:27:20;;;;;;;17.37;13.20;;;;;;;-2.85;85.66;102275.03;5057034;28;20201;-71
2021/03/03 05:29:45;;;;;;;16.10;12.30;;;;;;;-2.92;85.68;102271.38;5056040;28;20205;-71
2021/03/03 05:32:10;;;;;;;21.03;14.57;;;;;;;-3.00;85.83;102266.78;5056325;28;20171;-71
2021/03/03 05:34:35;;;;;;;17.27;13.13;;;;;;;-3.08;86.42;102277.03;5057002;28;20251;-70
2021/03/03 05:37:02;;;;;;;18.93;13.67;;;;;;;-3.05;86.47;102278.84;5056641;28;20278;-72
2021/03/03 05:39:27;;;;;;;19.40;14.53;;;;;;;-3.02;86.40;102276.31;5039172;28;20183;-70
2021/03/03 05:41:52;;;;;;;18.90;14.67;;;;;;;-2.99;86.88;102268.56;5057232;28;20827;-70
2021/03/03 05:44:18;;;;;;;18.60;14.07;;;;;;;-2.95;86.29;102273.03;5057134;28;20176;-70
2021/03/03 05:46:45;;;;;;;21.57;14.80;;;;;;;-2.93;86.40;102264.41;5077777;22;20211;-68
2021/03/03 05:49:14;;;;;;;20.47;14.13;;;;;;;-2.86;86.18;102270.66;5056210;28;20177;-68
2021/03/03 05:51:41;;;;;;;17.77;12.77;;;;;;;-2.86;86.18;102266.31;5072576;28;20760;-68
2021/03/03 05:54:06;;;;;;;18.37;12.43;;;;;;;-2.85;85.82;102257.63;5072946;28;20595;-69
2021/03/03 05:56:32;;;;;;;23.37;14.67;;;;;;;-2.85;85.90;102268.06;5072458;28;20841;-67
2021/03/03 05:58:58;;;;;;;28.80;17.77;;;;;;;-2.87;86.00;102264.53;5073819;28;20593;-67
2021/03/03 06:01:23;;;;;;;26.43;16.70;;;;;;;-2.87;86.95;102253.22;5072696;28;20179;-68
2021/03/03 06:03:48;;;;;;;22.93;15.43;;;;;;;-2.91;86.44;102259.22;5072413;28;20626;-68
2021/03/03 06:06:14;;;;;;;25.13;14.67;;;;;;;-2.92;85.68;102258.31;5073499;28;20179;-67
2021/03/03 06:08:39;;;;;;;20.03;15.13;;;;;;;-2.93;84.79;102266.13;5072211;28;20190;-67
2021/03/03 06:11:05;;;;;;;20.73;14.93;;;;;;;-2.97;85.41;102252.09;5072413;28;20184;-68
2021/03/03 06:13:31;;;;;;;25.20;17.47;;;;;;;-2.92;85.63;102250.47;5072362;28;20197;-68
2021/03/03 06:15:57;;;;;;;30.80;17.73;;;;;;;-2.83;86.01;102245.47;5073805;28;20182;-69
2021/03/03 06:18:23;;;;;;;20.87;15.33;;;;;;;-2.77;85.25;102246.47;5072192;28;20935;-68
2021/03/03 06:20:50;;;;;;;24.30;16.07;;;;;;;-2.63;85.54;102242.44;5073479;28;20345;-68
2021/03/03 06:23:29;;;;;;;26.80;15.33;;;;;;;-2.53;85.94;102249.66;5072031;28;20418;-67
2021/03/03 06:26:03;;;;;;;25.47;16.30;;;;;;;-2.39;84.69;102249.97;5071839;28;20442;-69
2021/03/03 06:28:40;;;;;;;22.03;14.40;;;;;;;-2.30;85.35;102251.03;5073202;28;20512;-68
2021/03/03 06:31:22;;;;;;;25.63;15.60;;;;;;;-2.17;84.75;102251.34;5072597;28;20420;-70
2021/03/03 06:33:48;;;;;;;20.07;14.03;;;;;;;-2.04;84.90;102250.75;5073423;28;20430;-69
2021/03/03 06:36:28;;;;;;;20.73;14.50;;;;;;;-1.91;84.10;102252.75;5073246;28;20419;-68
2021/03/03 06:38:54;;;;;;;19.60;13.60;;;;;;;-1.85;83.60;102245.06;5073541;28;20187;-69
2021/03/03 06:41:20;;;;;;;19.97;14.37;;;;;;;-1.76;82.63;102245.22;5073779;28;20477;-69
2021/03/03 06:43:56;;;;;;;22.23;14.13;;;;;;;-1.83;82.65;102243.34;5073065;28;20172;-69
2021/03/03 06:46:21;;;;;;;19.57;13.63;;;;;;;-1.73;83.79;102240.06;5072807;28;20591;-68
2021/03/03 06:48:47;;;;;;;25.90;16.57;;;;;;;-1.41;85.76;102239.78;5071618;28;20252;-68
2021/03/03 06:51:26;;;;;;;27.03;17.30;;;;;;;-1.19;85.94;102239.28;5072271;28;20181;-69
2021/03/03 06:53:53;;;;;;;29.40;17.97;;;;;;;-1.05;85.59;102237.81;5071606;28;20269;-69
2021/03/03 06:56:31;;;;;;;25.43;16.67;;;;;;;-1.02;83.71;102232.63;5071542;28;20175;-69
2021/03/03 06:59:09;;;;;;;23.53;15.70;;;;;;;-1.03;83.65;102236.09;5072792;28;20179;-68
2021/03/03 07:01:34;;;;;;;23.17;15.03;;;;;;;-0.99;83.01;102232.69;5073461;28;20258;-68
2021/03/03 07:04:00;;;;;;;22.03;13.63;;;;;;;-0.92;82.27;102228.41;5071996;28;20535;-68
2021/03/03 07:06:31;;;;;;;19.57;13.50;;;;;;;-0.98;81.46;102233.56;5072160;28;20573;-69
2021/03/03 07:08:59;;;;;;;22.00;13.90;;;;;;;-0.92;82.22;102233.66;5072288;28;20163;-69
2021/03/03 07:11:27;;;;;;;19.87;13.87;;;;;;;-0.81;81.83;102232.06;5073170;28;20612;-69
2021/03/03 07:13:52;;;;;;;22.73;15.03;;;;;;;-0.68;81.05;102241.91;5057424;28;20202;-70
2021/03/03 07:16:17;;;;;;;18.97;11.97;;;;;;;-0.65;80.78;102239.34;5074049;28;20179;-68
2021/03/03 07:18:43;;;;;;;17.83;12.03;;;;;;;-0.65;80.17;102235.84;5072816;28;20199;-69
2021/03/03 07:21:08;;;;;;;19.60;12.53;;;;;;;-0.54;80.26;102231.63;5073274;28;20174;-70
2021/03/03 07:23:48;;;;;;;19.50;12.57;;;;;;;-0.54;79.20;102233.38;5072349;28;20171;-70
2021/03/03 07:26:15;;;;;;;19.57;13.60;;;;;;;-0.74;80.01;102227.84;5072875;28;20215;-68
2021/03/03 07:28:40;;;;;;;17.77;12.50;;;;;;;-0.68;81.33;102231.44;5072590;28;20187;-69
2021/03/03 07:31:07;;;;;;;18.80;13.70;;;;;;;-0.54;81.45;102231.63;5071474;28;20651;-69
2021/03/03 07:33:32;;;;;;;22.13;14.10;;;;;;;-0.55;82.00;102229.88;5072855;28;20281;-69
2021/03/03 07:36:03;;;;;;;25.47;14.90;;;;;;;-0.50;81.84;102228.19;5071446;28;20620;-69
2021/03/03 07:38:31;;;;;;;23.30;14.00;;;;;;;-0.37;81.93;102224.03;5072107;28;20207;-69
2021/03/03 07:41:04;;;;;;;20.40;13.87;;;;;;;-0.20;80.95;102229.47;5072847;28;20170;-68
2021/03/03 07:43:31;;;;;;;23.47;14.27;;;;;;;-0.13;82.02;102218.19;5072562;28;20334;-68
2021/03/03 07:46:00;;;;;;;19.50;13.43;;;;;;;0.07;80.97;102229.84;5072956;28;20171;-68
2021/03/03 07:48:26;;;;;;;23.10;15.10;;;;;;;0.16;80.33;102227.31;5070939;28;20233;-69
2021/03/03 07:50:52;;;;;;;22.43;14.97;;;;;;;0.22;81.69;102221.25;5070992;28;20179;-69
2021/03/03 07:53:18;;;;;;;23.37;15.10;;;;;;;0.34;81.66;102215.25;5071315;28;20199;-68
2021/03/03 07:55:44;;;;;;;21.07;14.00;;;;;;;0.59;81.83;102206.78;5071029;28;20178;-70
2021/03/03 07:58:10;;;;;;;22.37;14.10;;;;;;;0.70;80.67;102207.75;5070920;28;20195;-69
2021/03/03 08:00:42;;;;;;;23.43;15.73;;;;;;;0.76;79.63;102210.47;5074893;28;20198;-69
2021/03/03 08:03:08;;;;;;;23.47;14.93;;;;;;;0.89;79.92;102203.56;5076547;28;20563;-68
2021/03/03 08:05:36;;;;;;;25.90;15.93;;;;;;;0.96;79.16;102191.34;5075699;28;20259;-69
2021/03/03 08:08:08;;;;;;;25.93;14.03;;;;;;;0.91;79.07;102184.28;5075622;28;20210;-69
2021/03/03 08:10:38;;;;;;;21.93;15.30;;;;;;;0.84;79.97;102190.38;5074215;28;20626;-69
2021/03/03 08:13:06;;;;;;;21.60;14.53;;;;;;;1.11;80.74;102191.44;5075376;28;20184;-69
2021/03/03 08:15:42;;;;;;;22.03;14.27;;;;;;;1.27;79.27;102185.44;5057543;28;20651;-69
2021/03/03 08:18:13;;;;;;;24.73;14.93;;;;;;;1.39;79.76;102179.38;5075618;28;20193;-70
2021/03/03 08:20:39;;;;;;;23.67;15.00;;;;;;;1.44;78.81;102189.03;5075604;28;20260;-68
2021/03/03 08:23:04;;;;;;;23.33;13.23;;;;;;;1.68;78.96;102177.78;5076309;28;20251;-69
2021/03/03 08:25:46;;;;;;;21.07;13.47;;;;;;;1.82;78.78;102180.47;5081032;28;20191;-69
2021/03/03 08:28:34;;;;;;;22.40;14.70;;;;;;;1.91;78.37;102191.06;5086417;28;20220;-69
2021/03/03 08:31:09;;;;;;;21.03;13.33;;;;;;;2.08;77.86;102170.94;5079341;28;20215;-68
2021/03/03 08:33:36;;;;;;;18.63;11.90;;;;;;;2.31;77.15;102160.47;5076761;28;20189;-68
2021/03/03 08:36:02;;;;;;;20.13;13.13;;;;;;;2.56;76.71;102152.56;5076970;28;20266;-69
2021/03/03 08:38:27;;;;;;;18.67;11.80;;;;;;;2.79;76.45;102146.44;5074558;28;20217;-69
2021/03/03 08:40:52;;;;;;;24.40;16.27;;;;;;;3.09;77.04;102140.28;5075927;28;20234;-69
2021/03/03 08:43:37;;;;;;;22.37;13.83;;;;;;;3.39;75.37;102128.78;5075627;28;20176;-69
2021/03/03 08:46:25;;;;;;;21.27;13.67;;;;;;;3.67;75.25;102133.97;5074174;28;20182;-69
2021/03/03 08:48:53;;;;;;;25.10;15.23;;;;;;;3.83;74.04;102138.31;5073414;28;20210;-69
2021/03/03 08:51:25;;;;;;;25.27;14.73;;;;;;;3.78;73.50;102147.13;5073870;28;20174;-69
2021/03/03 08:53:54;;;;;;;26.80;16.07;;;;;;;3.80;73.76;102143.59;5073444;28;20202;-69
2021/03/03 08:56:38;;;;;;;29.60;17.87;;;;;;;3.92;73.69;102138.25;5074973;28;20175;-69
2021/03/03 08:59:07;;;;;;;27.17;16.47;;;;;;;4.08;73.23;102126.72;5057086;28;20269;-69
2021/03/03 09:02:17;;;;;;;27.37;15.73;;;;;;;4.18;73.48;102126.69;5075022;28;20171;-69
2021/03/03 09:04:49;;;;;;;29.57;16.50;;;;;;;4.44;72.89;102118.56;5074696;28;20213;-69
2021/03/03 09:07:25;;;;;;;31.83;17.57;;;;;;;4.62;72.11;102123.72;5075316;28;20187;-68
2021/03/03 09:09:53;;;;;;;25.27;16.30;;;;;;;4.87;71.78;102127.06;5073780;28;20599;-69
2021/03/03 09:12:20;;;;;;;26.03;15.73;;;;;;;4.97;70.83;102119.00;5073915;28;20266;-69
2021/03/03 09:14:48;;;;;;;23.30;14.97;;;;;;;5.22;69.78;102122.31;5073497;28;20194;-68
2021/03/03 09:17:16;;;;;;;23.63;15.30;;;;;;;5.39;69.63;102123.88;5075352;28;20199;-69
2021/03/03 09:19:42;;;;;;;25.63;16.30;;;;;;;5.58;68.68;102117.50;5074463;28;20171;-69
2021/03/03 09:22:16;;;;;;;29.30;17.40;;;;;;;5.71;68.99;102120.88;5073168;28;20190;-68
2021/03/03 09:24:42;;;;;;;28.50;16.43;;;;;;;5.81;68.98;102118.06;5074782;28;20147;-68
2021/03/03 09:27:08;;;;;;;32.70;17.70;;;;;;;5.82;68.82;102117.16;5073084;28;20563;-68
2021/03/03 09:29:36;;;;;;;30.00;18.33;;;;;;;5.93;67.58;102109.97;5073185;28;20232;-68
2021/03/03 09:32:23;;;;;;;29.47;17.53;;;;;;;6.03;68.25;102101.94;5073216;28;20167;-68
2021/03/03 09:34:52;;;;;;;29.27;16.53;;;;;;;6.23;68.08;102102.50;5072951;28;20593;-69
2021/03/03 09:37:17;;;;;;;30.47;18.43;;;;;;;6.41;66.88;102093.41;5072915;28;20571;-69
2021/03/03 09:39:56;;;;;;;30.80;16.77;;;;;;;6.52;66.73;102091.44;5073023;28;20199;-68
2021/03/03 09:42:23;;;;;;;33.87;18.37;;;;;;;6.64;67.01;102098.31;5073931;28;20184;-68
2021/03/03 09:44:53;;;;;;;32.27;18.63;;;;;;;6.90;66.49;102098.75;5074105;28;20274;-68
2021/03/03 09:47:28;;;;;;;28.17;17.13;;;;;;;7.16;65.09;102099.19;5055765;28;20571;-69
2021/03/03 09:49:55;;;;;;;28.93;18.30;;;;;;;7.31;64.38;102098.00;5073882;28;20170;-69
2021/03/03 09:52:21;;;;;;;27.77;17.43;;;;;;;7.57;64.14;102092.19;5072951;28;20646;-69
2021/03/03 09:54:47;;;;;;;28.17;16.67;;;;;;;7.60;63.94;102085.94;5073824;28;20226;-69
2021/03/03 09:57:13;;;;;;;29.93;17.17;;;;;;;7.66;63.04;102081.34;5073289;28;20192;-70
2021/03/03 09:59:59;;;;;;;27.73;17.30;;;;;;;7.78;63.47;102088.19;5073926;28;20196;-69
2021/03/03 10:02:26;;;;;;;25.30;15.43;;;;;;;8.06;62.25;102094.66;5073409;28;20275;-67
2021/03/03 10:04:52;;;;;;;28.93;16.60;;;;;;;8.22;61.60;102081.91;5072773;28;20177;-69
2021/03/03 10:07:21;;;;;;;28.90;17.20;;;;;;;8.19;60.79;102074.00;5072317;28;20197;-69
2021/03/03 10:09:47;;;;;;;33.60;17.30;;;;;;;8.21;61.61;102074.81;5073280;28;20178;-68
2021/03/03 10:12:17;;;;;;;28.43;16.90;;;;;;;8.31;60.77;102070.16;5072600;28;20641;-70
2021/03/03 10:14:58;;;;;;;29.57;17.63;;;;;;;8.57;59.89;102061.59;5074014;28;20673;-69
2021/03/03 10:17:32;;;;;;;29.30;16.97;;;;;;;8.81;59.54;102055.59;5072348;28;20198;-69
2021/03/03 10:19:58;;;;;;;27.93;17.17;;;;;;;8.90;58.53;102058.03;5072520;28;20158;-69
2021/03/03 10:22:24;;;;;;;29.40;18.23;;;;;;;8.97;59.56;102056.09;5073381;28;20174;-69
2021/03/03 10:25:14;;;;;;;27.77;17.43;;;;;;;9.11;57.87;102056.59;5074187;28;20534;-68
2021/03/03 10:27:41;;;;;;;30.17;18.17;;;;;;;9.02;57.49;102052.38;5073695;28;20218;-70
2021/03/03 10:30:48;;;;;;;32.07;18.47;;;;;;;9.22;57.89;102049.16;5073963;28;20245;-69
2021/03/03 10:33:36;;;;;;;27.17;17.07;;;;;;;9.46;57.18;102052.94;5053239;28;20787;-69
2021/03/03 10:36:06;;;;;;;26.67;15.87;;;;;;;9.64;56.07;102044.38;5074443;28;20533;-69
2021/03/03 10:38:35;;;;;;;27.43;16.83;;;;;;;9.94;55.53;102041.69;5074106;28;20610;-70
2021/03/03 10:41:02;;;;;;;27.47;16.23;;;;;;;9.99;55.29;102037.09;5074173;28;20170;-69
2021/03/03 10:43:28;;;;;;;29.07;16.93;;;;;;;10.07;55.40;102034.22;5073680;28;20220;-69
2021/03/03 10:46:17;;;;;;;26.83;16.23;;;;;;;10.40;54.85;102029.56;5072867;28;20171;-69
2021/03/03 10:48:42;;;;;;;27.50;16.60;;;;;;;10.58;54.37;102026.31;5073420;28;20198;-69
2021/03/03 10:51:08;;;;;;;26.73;15.83;;;;;;;10.66;52.74;102024.25;5072125;28;20178;-70
2021/03/03 10:53:47;;;;;;;26.53;15.73;;;;;;;11.03;52.84;102018.47;5072814;28;20278;-68
2021/03/03 10:56:24;;;;;;;29.77;17.73;;;;;;;10.89;52.28;102013.66;5073571;28;20175;-69
2021/03/03 10:58:51;;;;;;;27.73;16.00;;;;;;;11.06;52.25;102007.69;5072734;28;20186;-68
2021/03/03 11:01:18;;;;;;;32.50;16.40;;;;;;;11.16;51.59;101995.75;5072445;28;20179;-68
2021/03/03 11:03:54;;;;;;;24.23;14.30;;;;;;;11.63;50.95;101985.06;5056032;28;20225;-68
2021/03/03 11:06:20;;;;;;;28.30;16.13;;;;;;;11.47;50.62;101984.75;5072307;28;20174;-69
2021/03/03 11:08:46;;;;;;;25.13;15.13;;;;;;;11.92;49.73;101975.91;5072327;28;20240;-69
2021/03/03 11:11:12;;;;;;;21.00;13.63;;;;;;;14.43;43.72;101982.31;5073659;28;20171;-68
2021/03/03 11:13:37;;;;;;;26.17;14.03;;;;;;;16.46;39.63;101977.38;5056362;28;20202;-68
2021/03/03 11:16:03;;;;;;;28.17;14.27;;;;;;;17.45;36.56;101960.47;5074132;28;20210;-68
2021/03/03 11:18:28;;;;;;;23.43;13.13;;;;;;;17.72;35.36;101957.84;5074092;28;20194;-69